createdAt,value
2018-05-25T00:01:34.068Z,94.20
2018-05-25T00:04:01.700Z,94.30
2018-05-25T00:06:29.365Z,94.30
2018-05-25T00:08:56.999Z,94.30
2018-05-25T00:11:24.697Z,94.30
2018-05-25T00:13:52.336Z,94.30
2018-05-25T00:16:20.791Z,94.20
2018-05-25T00:18:48.432Z,94.20
2018-05-25T00:21:16.112Z,94.20
2018-05-25T00:23:43.842Z,94.20
2018-05-25T00:26:12.329Z,94.20
2018-05-25T00:28:40.753Z,94.20
2018-05-25T00:31:08.416Z,94.20
2018-05-25T00:33:36.828Z,94.30
2018-05-25T00:36:04.528Z,94.30
2018-05-25T00:38:32.193Z,94.30
2018-05-25T00:40:59.825Z,94.40
2018-05-25T00:43:28.266Z,94.30
2018-05-25T00:45:55.908Z,94.30
2018-05-25T00:48:23.605Z,94.20
2018-05-25T00:50:51.240Z,94.10
2018-05-25T00:53:19.681Z,94.30
2018-05-25T00:55:47.326Z,94.30
2018-05-25T00:58:15.015Z,94.30
2018-05-25T01:00:42.685Z,94.20
2018-05-25T01:03:10.352Z,94.10
2018-05-25T01:05:37.984Z,94.10
2018-05-25T01:08:05.672Z,94.10
2018-05-25T01:10:34.064Z,94.60
2018-05-25T01:13:02.512Z,94.70
2018-05-25T01:15:30.143Z,94.70
2018-05-25T01:17:57.813Z,94.50
2018-05-25T01:20:26.214Z,94.20
2018-05-25T01:22:53.893Z,94.20
2018-05-25T01:25:21.529Z,94.30
2018-05-25T01:27:49.213Z,94.20
2018-05-25T01:30:17.700Z,94.40
2018-05-25T01:32:46.113Z,94.20
2018-05-25T01:35:13.791Z,94.20
2018-05-25T01:37:41.429Z,94.70
2018-05-25T01:40:09.897Z,95.60
2018-05-25T01:42:37.537Z,96.00
2018-05-25T01:45:05.221Z,95.70
2018-05-25T01:47:32.856Z,95.60
2018-05-25T01:50:01.284Z,95.90
2018-05-25T01:52:28.924Z,95.90
2018-05-25T01:54:57.352Z,96.20
2018-05-25T01:57:24.993Z,96.20
2018-05-25T01:59:53.466Z,96.90
2018-05-25T02:02:21.108Z,96.90
2018-05-25T02:04:48.772Z,97.70
2018-05-25T02:07:16.406Z,97.30
2018-05-25T02:09:44.865Z,96.60
2018-05-25T02:12:12.514Z,96.50
2018-05-25T02:14:40.187Z,96.20
2018-05-25T02:17:07.808Z,96.40
2018-05-25T02:19:36.223Z,96.40
2018-05-25T02:22:03.937Z,96.40
2018-05-25T02:24:31.564Z,96.20
2018-05-25T02:26:59.242Z,96.00
2018-05-25T02:29:26.888Z,95.90
2018-05-25T02:31:54.552Z,95.40
2018-05-25T02:34:22.185Z,95.20
2018-05-25T02:36:49.881Z,95.20
2018-05-25T02:39:17.529Z,95.20
2018-05-25T02:41:45.337Z,95.20
2018-05-25T02:44:12.995Z,95.20
2018-05-25T02:46:40.672Z,95.20
2018-05-25T02:49:08.331Z,95.50
2018-05-25T02:51:36.001Z,95.50
2018-05-25T02:54:03.632Z,95.40
2018-05-25T02:56:32.077Z,95.10
2018-05-25T02:58:59.720Z,95.10
2018-05-25T03:01:27.379Z,95.60
2018-05-25T03:03:55.808Z,95.50
2018-05-25T03:06:23.445Z,95.50
2018-05-25T03:08:51.881Z,95.60
2018-05-25T03:11:19.512Z,95.60
2018-05-25T03:13:47.210Z,95.60
2018-05-25T03:16:14.876Z,95.60
2018-05-25T03:18:42.584Z,95.80
2018-05-25T03:21:10.257Z,96.10
2018-05-25T03:23:37.924Z,96.10
2018-05-25T03:26:05.592Z,96.10
2018-05-25T03:28:33.296Z,95.90
2018-05-25T03:31:00.949Z,95.80
2018-05-25T03:33:28.617Z,95.70
2018-05-25T03:35:56.256Z,95.60
2018-05-25T03:38:23.928Z,95.60
2018-05-25T03:40:52.329Z,95.50
2018-05-25T03:43:19.996Z,95.50
2018-05-25T03:45:47.651Z,95.60
2018-05-25T03:48:16.130Z,95.80
2018-05-25T03:50:43.788Z,95.80
2018-05-25T03:53:11.456Z,95.60
2018-05-25T03:55:39.103Z,95.90
2018-05-25T03:58:06.773Z,95.90
2018-05-25T04:00:46.137Z,95.70
2018-05-25T04:03:13.844Z,95.70
2018-05-25T04:05:41.476Z,95.80
2018-05-25T04:08:09.133Z,95.80
2018-05-25T04:10:36.801Z,95.60
2018-05-25T04:13:04.433Z,95.50
2018-05-25T04:15:32.108Z,95.50
2018-05-25T04:17:59.765Z,95.50
2018-05-25T04:20:27.444Z,95.40
2018-05-25T04:22:55.072Z,95.30
2018-05-25T04:25:22.742Z,95.50
2018-05-25T04:27:50.429Z,95.00
2018-05-25T04:30:18.164Z,95.00
2018-05-25T04:32:46.569Z,95.10
2018-05-25T04:35:15.052Z,95.00
2018-05-25T04:37:42.705Z,95.00
2018-05-25T04:40:10.381Z,94.40
2018-05-25T04:42:38.019Z,93.80
2018-05-25T04:45:05.700Z,92.90
2018-05-25T04:47:33.352Z,92.10
2018-05-25T04:50:01.780Z,91.60
2018-05-25T04:52:29.453Z,90.80
2018-05-25T04:54:57.137Z,90.40
2018-05-25T04:57:24.760Z,91.30
2018-05-25T04:59:52.432Z,90.40
2018-05-25T05:02:20.096Z,89.80
2018-05-25T05:04:48.508Z,86.80
2018-05-25T05:07:16.229Z,86.80
2018-05-25T05:09:43.888Z,84.60
2018-05-25T05:12:11.568Z,83.60
2018-05-25T05:14:39.214Z,81.30
2018-05-25T05:17:06.881Z,79.30
2018-05-25T05:19:34.511Z,78.70
2018-05-25T05:22:02.261Z,78.60
2018-05-25T05:24:29.896Z,78.30
2018-05-25T05:26:57.573Z,81.50
2018-05-25T05:29:25.224Z,88.60
2018-05-25T05:31:53.661Z,91.80
2018-05-25T05:34:21.321Z,91.80
2018-05-25T05:36:48.984Z,92.00
2018-05-25T05:39:16.620Z,92.00
2018-05-25T05:41:45.202Z,91.90
2018-05-25T05:44:12.981Z,91.90
2018-05-25T05:46:40.685Z,90.90
2018-05-25T05:49:09.076Z,88.30
2018-05-25T05:51:37.509Z,82.60
2018-05-25T05:54:05.163Z,81.80
2018-05-25T05:56:32.848Z,81.30
2018-05-25T05:59:00.487Z,79.70
2018-05-25T06:01:28.177Z,79.70
2018-05-25T06:03:55.833Z,83.50
2018-05-25T06:06:24.268Z,78.70
2018-05-25T06:08:51.908Z,78.60
2018-05-25T06:11:19.576Z,79.70
2018-05-25T06:13:48.013Z,76.20
2018-05-25T06:16:15.752Z,76.10
2018-05-25T06:18:43.429Z,79.10
2018-05-25T06:21:11.052Z,78.90
2018-05-25T06:23:38.744Z,82.80
2018-05-25T06:26:06.411Z,78.90
2018-05-25T06:28:34.125Z,83.10
2018-05-25T06:31:01.773Z,81.80
2018-05-25T06:33:30.212Z,77.40
2018-05-25T06:35:57.841Z,77.50
2018-05-25T06:38:26.286Z,79.90
2018-05-25T06:40:53.933Z,79.80
2018-05-25T06:43:21.628Z,76.20
2018-05-25T06:45:49.256Z,75.20
2018-05-25T06:48:17.704Z,78.90
2018-05-25T06:50:45.403Z,78.80
2018-05-25T06:53:13.953Z,78.90
2018-05-25T06:55:41.596Z,78.90
2018-05-25T06:58:09.264Z,79.60
2018-05-25T07:00:37.659Z,81.30
2018-05-25T07:03:06.109Z,83.80
2018-05-25T07:05:33.732Z,83.80
2018-05-25T07:08:01.364Z,83.20
2018-05-25T07:10:29.824Z,80.60
2018-05-25T07:12:57.493Z,80.60
2018-05-25T07:15:25.153Z,82.00
2018-05-25T07:17:52.780Z,81.80
2018-05-25T07:20:20.440Z,77.50
2018-05-25T07:22:48.097Z,75.50
2018-05-25T07:25:15.820Z,76.30
2018-05-25T07:27:43.491Z,74.10
2018-05-25T07:30:11.942Z,72.20
2018-05-25T07:32:39.581Z,72.20
2018-05-25T07:35:07.253Z,74.60
2018-05-25T07:37:34.893Z,73.90
2018-05-25T07:40:02.606Z,74.50
2018-05-25T07:42:30.237Z,75.10
2018-05-25T07:44:57.906Z,69.50
2018-05-25T07:47:25.552Z,71.00
2018-05-25T07:49:53.216Z,73.50
2018-05-25T07:52:20.847Z,71.90
2018-05-25T07:54:49.272Z,74.20
2018-05-25T07:57:16.917Z,74.20
2018-05-25T07:59:45.336Z,70.50
2018-05-25T08:02:13.880Z,70.50
2018-05-25T08:04:41.504Z,66.60
2018-05-25T08:07:09.168Z,74.70
2018-05-25T08:09:36.816Z,68.10
2018-05-25T08:12:05.250Z,73.10
2018-05-25T08:14:32.904Z,73.00
2018-05-25T08:17:00.613Z,70.40
2018-05-25T08:19:28.242Z,70.60
2018-05-25T08:21:56.722Z,73.80
2018-05-25T08:24:24.343Z,73.70
2018-05-25T08:26:52.021Z,78.60
2018-05-25T08:29:19.658Z,72.90
2018-05-25T08:31:47.810Z,72.10
2018-05-25T08:34:16.265Z,75.60
2018-05-25T08:36:43.953Z,75.70
2018-05-25T08:39:11.576Z,79.60
2018-05-25T08:41:39.252Z,77.90
2018-05-25T08:44:07.652Z,74.80
2018-05-25T08:46:35.312Z,74.50
2018-05-25T08:49:03.717Z,78.60
2018-05-25T08:51:31.607Z,78.90
2018-05-25T08:53:59.065Z,81.90
2018-05-25T08:56:26.752Z,82.90
2018-05-25T08:58:54.385Z,84.40
2018-05-25T09:01:22.795Z,85.40
2018-05-25T09:03:50.460Z,85.10
2018-05-25T09:06:18.853Z,83.00
2018-05-25T09:08:47.301Z,85.60
2018-05-25T09:11:14.968Z,85.40
2018-05-25T09:13:42.655Z,82.90
2018-05-25T09:16:10.292Z,79.10
2018-05-25T09:18:37.952Z,73.60
2018-05-25T09:21:05.592Z,75.80
2018-05-25T09:23:33.265Z,74.70
2018-05-25T09:26:00.901Z,75.40
2018-05-25T09:28:28.571Z,74.30
2018-05-25T09:30:56.256Z,67.40
2018-05-25T09:33:23.921Z,68.40
2018-05-25T09:35:51.553Z,67.30
2018-05-25T09:38:19.977Z,73.30
2018-05-25T09:40:47.624Z,73.20
2018-05-25T09:43:16.121Z,75.30
2018-05-25T09:45:43.772Z,75.30
2018-05-25T09:48:11.457Z,70.90
2018-05-25T09:50:39.152Z,77.60
2018-05-25T09:53:06.868Z,74.00
2018-05-25T09:55:34.496Z,72.60
2018-05-25T09:58:02.200Z,76.70
2018-05-25T10:00:29.837Z,74.80
2018-05-25T10:02:58.278Z,84.40
2018-05-25T10:05:25.972Z,84.50
2018-05-25T10:07:53.608Z,88.20
2018-05-25T10:10:21.278Z,87.30
2018-05-25T10:12:48.928Z,79.60
2018-05-25T10:15:16.620Z,78.40
2018-05-25T10:17:44.285Z,73.00
2018-05-25T10:20:11.954Z,84.20
2018-05-25T10:22:39.597Z,78.60
2018-05-25T10:25:07.278Z,74.80
2018-05-25T10:27:35.683Z,72.80
2018-05-25T10:30:04.209Z,74.60
2018-05-25T10:32:31.936Z,74.40
2018-05-25T10:35:00.412Z,73.60
2018-05-25T10:37:28.053Z,72.90
2018-05-25T10:39:55.724Z,69.30
2018-05-25T10:42:23.368Z,70.70
2018-05-25T10:44:51.820Z,75.40
2018-05-25T10:47:19.508Z,75.50
2018-05-25T10:49:47.189Z,76.10
2018-05-25T10:52:14.878Z,68.30
2018-05-25T10:54:42.570Z,74.50
2018-05-25T10:57:10.260Z,70.70
2018-05-25T10:59:37.909Z,74.50
2018-05-25T11:02:05.597Z,75.30
2018-05-25T11:04:33.236Z,78.30
2018-05-25T11:07:01.676Z,72.50
2018-05-25T11:09:29.305Z,73.00
2018-05-25T11:11:57.745Z,76.60
2018-05-25T11:14:25.375Z,76.50
2018-05-25T11:16:53.085Z,73.80
2018-05-25T11:19:20.726Z,75.50
2018-05-25T11:21:49.165Z,67.00
2018-05-25T11:24:16.823Z,66.80
2018-05-25T11:26:44.527Z,68.90
2018-05-25T11:29:12.180Z,69.80
2018-05-25T11:31:39.862Z,78.30
2018-05-25T11:34:07.513Z,80.00
2018-05-25T11:36:35.209Z,77.70
2018-05-25T11:39:02.875Z,75.40
2018-05-25T11:41:30.540Z,71.40
2018-05-25T11:43:58.232Z,70.40
2018-05-25T11:46:25.868Z,74.30
2018-05-25T11:48:53.536Z,76.00
2018-05-25T11:51:21.206Z,76.90
2018-05-25T11:53:48.893Z,79.50
2018-05-25T11:56:16.576Z,76.50
2018-05-25T11:58:44.259Z,75.20
2018-05-25T12:01:11.889Z,78.10
2018-05-25T12:03:40.333Z,71.30
2018-05-25T12:06:07.956Z,71.20
2018-05-25T12:08:36.396Z,68.90
2018-05-25T12:11:04.042Z,68.90
2018-05-25T12:13:31.735Z,70.40
2018-05-25T12:15:59.398Z,72.80
2018-05-25T12:18:27.165Z,72.80
2018-05-25T12:20:54.812Z,74.10
2018-05-25T12:23:23.247Z,72.00
2018-05-25T12:25:50.907Z,72.00
2018-05-25T12:28:18.625Z,70.50
2018-05-25T12:30:46.304Z,70.10
2018-05-25T12:33:13.952Z,73.10
2018-05-25T12:35:41.636Z,71.10
2018-05-25T12:38:09.277Z,73.60
2018-05-25T12:40:36.944Z,75.90
2018-05-25T12:43:04.624Z,73.90
2018-05-25T12:45:32.308Z,72.60
2018-05-25T12:48:00.029Z,70.00
2018-05-25T12:50:27.794Z,69.60
2018-05-25T12:52:55.522Z,67.70
2018-05-25T12:55:23.192Z,70.20
2018-05-25T12:57:50.827Z,69.70
2018-05-25T13:00:18.537Z,64.60
2018-05-25T13:02:46.243Z,65.10
2018-05-25T13:05:13.920Z,64.90
2018-05-25T13:07:41.584Z,64.80
2018-05-25T13:10:09.254Z,64.20
2018-05-25T13:12:36.906Z,69.60
2018-05-25T13:15:04.581Z,69.40
2018-05-25T13:17:32.278Z,72.00
2018-05-25T13:19:59.981Z,69.10
2018-05-25T13:22:27.640Z,67.40
2018-05-25T13:24:55.321Z,68.40
2018-05-25T13:27:22.950Z,68.40
2018-05-25T13:29:50.654Z,71.20
2018-05-25T13:32:18.353Z,70.70
2018-05-25T13:34:45.990Z,70.10
2018-05-25T13:37:13.665Z,68.60
2018-05-25T13:39:41.301Z,68.20
2018-05-25T13:42:09.191Z,71.80
2018-05-25T13:44:36.831Z,68.30
2018-05-25T13:47:05.325Z,69.00
2018-05-25T13:49:33.017Z,69.00
2018-05-25T13:52:00.717Z,67.40
2018-05-25T13:54:28.403Z,69.60
2018-05-25T13:56:56.077Z,68.90
2018-05-25T13:59:23.712Z,68.30
2018-05-25T14:01:52.153Z,67.50
2018-05-25T14:04:19.800Z,67.30
2018-05-25T14:06:47.484Z,67.30
2018-05-25T14:09:15.168Z,68.10
2018-05-25T14:11:42.879Z,65.70
2018-05-25T14:14:10.522Z,66.50
2018-05-25T14:16:38.161Z,67.30
2018-05-25T14:19:05.832Z,65.50
2018-05-25T14:21:33.470Z,65.20
2018-05-25T14:24:01.215Z,67.60
2018-05-25T14:26:28.877Z,68.90
2018-05-25T14:28:56.619Z,65.60
2018-05-25T14:31:25.026Z,65.20
2018-05-25T14:33:52.700Z,65.30
2018-05-25T14:36:20.328Z,63.40
2018-05-25T14:38:48.056Z,65.10
2018-05-25T14:41:15.720Z,67.20
2018-05-25T14:43:43.397Z,64.10
2018-05-25T14:46:11.036Z,67.00
2018-05-25T14:48:38.700Z,69.40
2018-05-25T14:51:06.338Z,67.40
2018-05-25T14:53:34.032Z,66.70
2018-05-25T14:56:01.719Z,64.70
2018-05-25T14:58:29.428Z,66.10
2018-05-25T15:00:57.125Z,68.00
2018-05-25T15:03:24.781Z,67.80
2018-05-25T15:05:52.414Z,66.30
2018-05-25T15:08:20.061Z,67.90
2018-05-25T15:10:47.751Z,68.40
2018-05-25T15:13:15.432Z,69.20
2018-05-25T15:15:43.150Z,69.00
2018-05-25T15:18:11.523Z,67.80
2018-05-25T15:20:39.973Z,71.80
2018-05-25T15:23:07.599Z,71.80
2018-05-25T15:25:35.283Z,75.80
2018-05-25T15:28:02.952Z,72.40
2018-05-25T15:30:30.713Z,70.10
2018-05-25T15:32:59.128Z,67.20
2018-05-25T15:35:26.869Z,67.20
2018-05-25T15:37:54.501Z,70.60
2018-05-25T15:40:22.171Z,71.60
2018-05-25T15:42:49.827Z,69.90
2018-05-25T15:45:17.545Z,68.40
2018-05-25T15:47:45.200Z,70.00
2018-05-25T15:50:12.881Z,68.70
2018-05-25T15:52:40.515Z,67.30
2018-05-25T15:55:08.192Z,66.80
2018-05-25T15:57:35.841Z,68.10
2018-05-25T16:00:04.328Z,66.70
2018-05-25T16:02:32.797Z,65.40
2018-05-25T16:05:00.479Z,65.30
2018-05-25T16:07:28.965Z,64.40
2018-05-25T16:09:56.661Z,64.40
2018-05-25T16:12:24.332Z,63.30
2018-05-25T16:14:52.744Z,63.70
2018-05-25T16:17:21.181Z,62.30
2018-05-25T16:19:48.884Z,62.30
2018-05-25T16:22:16.569Z,63.80
2018-05-25T16:24:44.989Z,62.30
2018-05-25T16:27:12.669Z,62.30
2018-05-25T16:29:40.303Z,60.80
2018-05-25T16:32:08.749Z,61.30
2018-05-25T16:34:36.376Z,61.40
2018-05-25T16:37:04.867Z,63.80
2018-05-25T16:39:33.284Z,64.50
2018-05-25T16:42:00.953Z,64.60
2018-05-25T16:44:28.597Z,65.40
2018-05-25T16:46:56.265Z,64.30
2018-05-25T16:49:23.900Z,63.30
2018-05-25T16:51:51.565Z,62.20
2018-05-25T16:54:19.256Z,64.10
2018-05-25T16:56:46.978Z,64.50
2018-05-25T16:59:15.423Z,66.00
2018-05-25T17:01:43.108Z,65.90
2018-05-25T17:04:10.741Z,65.80
2018-05-25T17:06:38.433Z,65.50
2018-05-25T17:09:06.070Z,67.20
2018-05-25T17:11:33.761Z,65.80
2018-05-25T17:14:01.429Z,65.70
2018-05-25T17:16:29.896Z,67.20
2018-05-25T17:18:57.661Z,67.00
2018-05-25T17:21:25.315Z,68.10
2018-05-25T17:23:52.981Z,66.50
2018-05-25T17:26:20.620Z,65.60
2018-05-25T17:28:48.306Z,66.40
2018-05-25T17:31:15.948Z,67.80
2018-05-25T17:33:44.397Z,67.20
2018-05-25T17:36:12.070Z,67.20
2018-05-25T17:38:39.732Z,67.00
2018-05-25T17:41:07.401Z,66.10
2018-05-25T17:43:35.072Z,65.60
2018-05-25T17:46:02.756Z,65.60
2018-05-25T17:48:30.505Z,66.50
2018-05-25T17:50:58.234Z,66.40
2018-05-25T17:53:25.963Z,69.60
2018-05-25T17:55:53.608Z,69.50
2018-05-25T17:58:21.263Z,67.70
2018-05-25T18:00:48.928Z,68.70
2018-05-25T18:03:16.566Z,69.10
2018-05-25T18:05:44.241Z,69.90
2018-05-25T18:08:11.879Z,70.30
2018-05-25T18:10:40.325Z,69.40
2018-05-25T18:13:07.960Z,69.30
2018-05-25T18:15:35.640Z,70.90
2018-05-25T18:18:03.329Z,71.20
2018-05-25T18:20:31.065Z,68.90
2018-05-25T18:22:59.524Z,71.30
2018-05-25T18:25:27.237Z,71.20
2018-05-25T18:27:54.993Z,71.10
2018-05-25T18:30:23.439Z,69.50
2018-05-25T18:32:51.088Z,69.50
2018-05-25T18:35:18.764Z,72.70
2018-05-25T18:37:46.401Z,72.30
2018-05-25T18:40:14.076Z,71.10
2018-05-25T18:42:41.722Z,70.80
2018-05-25T18:45:09.405Z,71.80
2018-05-25T18:47:37.056Z,71.70
2018-05-25T18:50:04.781Z,70.90
2018-05-25T18:52:33.195Z,71.70
2018-05-25T18:55:00.881Z,71.70
2018-05-25T18:57:28.592Z,70.60
2018-05-25T18:59:56.344Z,73.60
2018-05-25T19:02:24.024Z,73.70
2018-05-25T19:04:51.693Z,76.30
2018-05-25T19:07:19.381Z,74.30
2018-05-25T19:09:47.026Z,74.50
2018-05-25T19:12:14.688Z,72.60
2018-05-25T19:14:42.332Z,74.50
2018-05-25T19:17:09.999Z,75.70
2018-05-25T19:19:37.644Z,76.10
2018-05-25T19:22:05.320Z,75.80
2018-05-25T19:24:33.848Z,75.70
2018-05-25T19:27:01.529Z,74.70
2018-05-25T19:29:29.952Z,76.90
2018-05-25T19:31:57.657Z,76.80
2018-05-25T19:34:25.486Z,78.20
2018-05-25T19:36:53.965Z,79.70
2018-05-25T19:39:22.380Z,81.80
2018-05-25T19:41:50.045Z,81.90
2018-05-25T19:44:18.440Z,80.40
2018-05-25T19:46:46.875Z,83.90
2018-05-25T19:49:14.504Z,83.10
2018-05-25T19:51:44.843Z,80.00
2018-05-25T19:54:13.236Z,79.40
2018-05-25T19:56:40.921Z,79.40
2018-05-25T19:59:08.557Z,79.40
2018-05-25T20:01:36.193Z,79.50
2018-05-25T20:04:03.954Z,80.40
2018-05-25T20:06:31.600Z,83.40
2018-05-25T20:09:00.049Z,83.00
2018-05-25T20:11:27.712Z,83.10
2018-05-25T20:13:55.388Z,80.70
2018-05-25T20:16:23.025Z,82.30
2018-05-25T20:18:50.688Z,83.70
2018-05-25T20:21:19.097Z,83.50
2018-05-25T20:23:46.765Z,83.40
2018-05-25T20:26:14.401Z,81.80
2018-05-25T20:28:42.069Z,82.00
2018-05-25T20:31:09.696Z,82.00
2018-05-25T20:33:37.380Z,81.30
2018-05-25T20:36:05.021Z,81.10
2018-05-25T20:38:33.516Z,80.70
2018-05-25T20:41:01.197Z,81.40
2018-05-25T20:43:28.928Z,81.30
2018-05-25T20:45:56.587Z,81.20
2018-05-25T20:48:24.282Z,81.70
2018-05-25T20:50:51.924Z,81.70
2018-05-25T20:53:19.655Z,80.20
2018-05-25T20:55:48.060Z,81.00
2018-05-25T20:58:15.691Z,81.00
2018-05-25T21:00:43.360Z,81.00
2018-05-25T21:03:11.000Z,81.90
2018-05-25T21:05:38.678Z,82.30
2018-05-25T21:08:06.321Z,82.60
2018-05-25T21:10:33.992Z,82.10
2018-05-25T21:13:02.445Z,82.90
2018-05-25T21:15:30.135Z,82.90
2018-05-25T21:17:57.785Z,82.40
2018-05-25T21:20:25.489Z,82.40
2018-05-25T21:22:53.928Z,82.40
2018-05-25T21:25:21.617Z,82.40
2018-05-25T21:27:49.253Z,82.00
2018-05-25T21:30:16.920Z,82.90
2018-05-25T21:32:45.321Z,82.40
2018-05-25T21:35:12.984Z,82.40
2018-05-25T21:37:41.384Z,83.40
2018-05-25T21:40:09.052Z,83.30
2018-05-25T21:42:36.714Z,84.10
2018-05-25T21:45:04.437Z,83.60
2018-05-25T21:47:32.100Z,83.60
2018-05-25T21:50:00.157Z,83.40
2018-05-25T21:52:27.850Z,83.40
2018-05-25T21:54:55.550Z,83.40
2018-05-25T21:57:23.204Z,83.70
2018-05-25T21:59:50.832Z,84.30
2018-05-25T22:02:19.276Z,84.60
2018-05-25T22:04:46.916Z,84.60
2018-05-25T22:07:14.584Z,84.90
2018-05-25T22:09:42.984Z,85.50
2018-05-25T22:12:10.701Z,85.50
2018-05-25T22:14:38.328Z,85.50
2018-05-25T22:17:06.777Z,85.60
2018-05-25T22:19:34.413Z,85.60
2018-05-25T22:22:02.089Z,85.40
2018-05-25T22:24:29.732Z,85.40
2018-05-25T22:26:58.191Z,85.50
2018-05-25T22:29:25.885Z,85.50
2018-05-25T22:31:54.360Z,85.90
2018-05-25T22:34:21.997Z,85.90
2018-05-25T22:36:49.670Z,85.90
2018-05-25T22:39:17.305Z,86.40
2018-05-25T22:41:50.608Z,86.50
2018-05-25T22:44:30.860Z,86.60
2018-05-25T22:47:10.421Z,86.60
2018-05-25T22:49:49.913Z,86.50
2018-05-25T22:52:22.729Z,86.40
2018-05-25T22:54:52.296Z,86.80
2018-05-25T22:57:20.735Z,87.00
2018-05-25T22:59:48.368Z,87.00
2018-05-25T23:02:16.804Z,87.60
2018-05-25T23:04:44.433Z,87.40
2018-05-25T23:07:12.874Z,88.10
2018-05-25T23:09:40.520Z,88.10
2018-05-25T23:12:08.273Z,87.80
2018-05-25T23:14:36.676Z,87.90
2018-05-25T23:17:04.352Z,87.80
2018-05-25T23:19:32.001Z,87.90
2018-05-25T23:22:00.436Z,88.40
2018-05-25T23:24:28.067Z,88.40
2018-05-25T23:26:56.466Z,88.70
2018-05-25T23:29:24.908Z,88.80
2018-05-25T23:31:52.584Z,88.70
2018-05-25T23:34:20.253Z,88.80
2018-05-25T23:36:47.936Z,88.60
2018-05-25T23:39:15.610Z,89.20
2018-05-25T23:41:43.249Z,89.10
2018-05-25T23:44:10.928Z,89.10
2018-05-25T23:46:38.563Z,89.10
2018-05-25T23:49:06.254Z,88.90
2018-05-25T23:51:34.673Z,88.80
2018-05-25T23:54:02.351Z,88.80
2018-05-25T23:56:29.981Z,88.90
2018-05-25T23:58:57.649Z,89.10
